INFORMACIÓN METAR y TAF
METAR FOR LEGR
ADDS - METARS form results

(0506 UTC 19 January 2022)
Data provider http://aviationweather.gov/metar/data/
 
METAR text: LEGR 190500Z 00000KT CAVOK M03/M03 Q1030
Conditions at: LEGR (GRANADA AIRPORT , ES) observed 0500 UTC 19 January 2022
Temperature: -3.0°C (27°F)
Dewpoint: -3.0°C (27°F) [RH = 100%]
Pressure (altimeter): 30.41 inches Hg (1030.0 mb)
Winds: calm
Visibility: 6 or more miles (10+ km)
Ceiling: ceiling and visibility are OK
Clouds: unknown
Weather: no significant weather observed at this time

METAR text: LEGR 190430Z AUTO 25002KT CAVOK M02/M03 Q1030
Conditions at: LEGR (GRANADA AIRPORT , ES) observed 0430 UTC 19 January 2022
Temperature: -2.0°C (28°F)
Dewpoint: -3.0°C (27°F) [RH = 93%]
Pressure (altimeter): 30.41 inches Hg (1030.0 mb)
Winds: from the WSW (250 degrees) at 2 MPH (2 knots; 1.0 m/s)
Visibility: 6 or more miles (10+ km)
Ceiling: ceiling and visibility are OK
Clouds: unknown
Weather: no significant weather observed at this time

Forecast for: LEGR (GRANADA AIRPORT , ES)
Text: TAF LEGR 182300Z 1900/1924 VRB02KT CAVOK TX15/1915Z TNM04/1907Z
Forecast period: 0000 UTC 19 January 2022 to 0000 UTC 20 January 2022
Forecast type: FROM: standard forecast or significant change
Winds: variable direction winds at 2 MPH (2 knots; 1.0 m/s)
Visibility: 6 or more miles (10+ km)
Ceiling: unknown
Clouds: missing
Weather: no significant weather forecast for this period

 MAPA DE AEROPUERTO

 INFORMACIÓN DE PISTA
Pista 09 Longitud 9514 ft Ancho 148 ft
Elevación 1842 ft Umbral desplazado 0 ft Rumbo de pista 90
Pista 27 Longitud 9514 ft Ancho 148 ft
Elevación 1860 ft Umbral desplazado 0 ft Rumbo de pista 270

 FRECUANCIAS DEL AEROPUERTO
Tipo GND Nombre GND Frecuencia 121.7 MHZ
Tipo TWR Nombre TWR Frecuencia 118.85 MHZ

 RADIO AYUDAS DEL AEROPUERTO
Tipo VOR-DME Nombre Granada Frecuencia 113400 KHZ



Powered by Virtual Airlines Manager [v2.6.2]